Time,TemperatureF,DewpointF,PressureIn,WindDirection,WindDirectionDegrees,WindSpeedMPH,WindSpeedGustMPH,Humidity,HourlyPrecipIn,Conditions,Clouds,dailyrainin,SoftwareType,DateUTC
2013-03-08 00:02:00,65.1,55.8,29.41,East,90,0.0,8.0,72,0.00,,,0.00,WUHU216HW,2013-03-08 06:02:00,
2013-03-08 00:07:00,64.7,55.5,29.42,SSE,158,0.0,6.7,72,0.00,,,0.00,WUHU216HW,2013-03-08 06:07:00,
2013-03-08 00:12:00,65.1,55.8,29.42,North,0,3.8,6.7,72,0.00,,,0.00,WUHU216HW,2013-03-08 06:12:00,
2013-03-08 00:17:00,64.7,55.5,29.42,SE,135,3.8,3.8,72,0.00,,,0.00,WUHU216HW,2013-03-08 06:17:00,
2013-03-08 00:22:00,65.1,55.8,29.42,SSE,158,0.6,3.8,72,0.00,,,0.00,WUHU216HW,2013-03-08 06:22:00,
2013-03-08 00:27:00,64.7,55.9,29.42,ESE,113,0.8,4.6,73,0.00,,,0.00,WUHU216HW,2013-03-08 06:27:00,
2013-03-08 00:32:00,65.1,56.2,29.42,East,90,6.0,10.5,73,0.00,,,0.00,WUHU216HW,2013-03-08 06:32:00,
2013-03-08 00:37:00,64.7,55.9,29.42,SSE,158,6.4,10.5,73,0.00,,,0.00,WUHU216HW,2013-03-08 06:37:00,
2013-03-08 00:42:00,64.7,55.9,29.42,East,90,3.8,6.4,73,0.00,,,0.00,WUHU216HW,2013-03-08 06:42:00,
2013-03-08 00:47:00,64.9,56.0,29.42,East,90,1.7,4.6,73,0.00,,,0.00,WUHU216HW,2013-03-08 06:47:00,
2013-03-08 00:52:00,65.1,56.2,29.42,SE,135,0.8,2.2,73,0.00,,,0.00,WUHU216HW,2013-03-08 06:52:00,
2013-03-08 00:57:00,64.7,55.9,29.41,SSE,158,3.8,4.9,73,0.00,,,0.00,WUHU216HW,2013-03-08 06:57:00,
2013-03-08 01:02:00,64.5,55.7,29.41,ESE,113,5.1,5.1,73,0.00,,,0.00,WUHU216HW,2013-03-08 07:02:00,
2013-03-08 01:07:00,64.7,56.2,29.41,East,90,3.3,5.8,74,0.00,,,0.00,WUHU216HW,2013-03-08 07:07:00,
2013-03-08 01:12:00,64.7,56.2,29.41,ESE,113,2.4,5.8,74,0.00,,,0.00,WUHU216HW,2013-03-08 07:12:00,
2013-03-08 01:17:00,64.5,56.4,29.41,South,180,3.1,4.9,75,0.00,,,0.00,WUHU216HW,2013-03-08 07:17:00,
2013-03-08 01:22:00,64.5,56.1,29.41,SE,135,2.9,3.1,74,0.00,,,0.00,WUHU216HW,2013-03-08 07:22:00,
2013-03-08 01:27:00,64.5,56.4,29.40,ESE,113,4.2,9.6,75,0.00,,,0.00,WUHU216HW,2013-03-08 07:27:00,
2013-03-08 01:32:00,64.5,56.4,29.40,NE,45,2.4,9.6,75,0.00,,,0.00,WUHU216HW,2013-03-08 07:32:00,
2013-03-08 01:37:00,64.9,56.8,29.41,SSE,158,3.1,6.2,75,0.00,,,0.00,WUHU216HW,2013-03-08 07:37:00,
2013-03-08 01:42:00,64.5,57.1,29.41,SSE,158,1.7,3.8,76,0.00,,,0.00,WUHU216HW,2013-03-08 07:42:00,
2013-03-08 01:47:00,64.5,56.4,29.41,ESE,113,4.6,4.6,75,0.00,,,0.00,WUHU216HW,2013-03-08 07:47:00,
2013-03-08 01:52:00,64.5,56.8,29.41,SSE,158,0.0,4.6,76,0.00,,,0.00,WUHU216HW,2013-03-08 07:52:00,
2013-03-08 01:57:00,64.5,56.6,29.40,East,90,4.6,4.6,76,0.00,,,0.00,WUHU216HW,2013-03-08 07:57:00,
2013-03-08 02:02:00,64.7,57.0,29.40,ESE,113,1.5,4.6,76,0.00,,,0.00,WUHU216HW,2013-03-08 08:02:00,
2013-03-08 02:07:00,64.5,56.8,29.40,East,90,4.6,4.6,76,0.00,,,0.00,WUHU216HW,2013-03-08 08:07:00,
2013-03-08 02:12:00,64.5,57.0,29.40,ESE,113,3.3,4.6,77,0.00,,,0.00,WUHU216HW,2013-03-08 08:12:00,
2013-03-08 02:17:00,64.5,57.1,29.40,East,90,7.8,7.8,77,0.00,,,0.00,WUHU216HW,2013-03-08 08:17:00,
2013-03-08 02:22:00,64.4,57.0,29.40,East,90,4.9,7.8,77,0.00,,,0.00,WUHU216HW,2013-03-08 08:22:00,
2013-03-08 02:27:00,64.5,57.1,29.40,East,90,2.0,7.8,77,0.00,,,0.00,WUHU216HW,2013-03-08 08:27:00,
2013-03-08 02:32:00,64.0,56.6,29.40,SSE,158,1.7,2.0,77,0.00,,,0.00,WUHU216HW,2013-03-08 08:32:00,
2013-03-08 02:37:00,64.7,57.3,29.40,South,180,7.8,7.8,77,0.00,,,0.00,WUHU216HW,2013-03-08 08:37:00,
2013-03-08 02:42:00,64.0,57.1,29.39,ESE,113,4.6,7.8,77,0.00,,,0.00,WUHU216HW,2013-03-08 08:42:00,
2013-03-08 02:47:00,64.7,57.7,29.39,SE,135,0.6,4.6,78,0.00,,,0.00,WUHU216HW,2013-03-08 08:47:00,
2013-03-08 02:52:00,64.5,57.5,29.39,SSE,158,3.8,4.6,78,0.00,,,0.00,WUHU216HW,2013-03-08 08:52:00,
2013-03-08 02:57:00,64.5,57.7,29.39,East,90,1.7,4.4,79,0.00,,,0.00,WUHU216HW,2013-03-08 08:57:00,
2013-03-08 03:02:00,64.5,57.9,29.39,East,90,2.0,4.4,79,0.00,,,0.00,WUHU216HW,2013-03-08 09:02:00,
2013-03-08 03:07:00,64.0,57.3,29.38,East,90,5.8,5.8,79,0.00,,,0.00,WUHU216HW,2013-03-08 09:07:00,
2013-03-08 03:12:00,64.2,57.9,29.38,East,90,2.4,5.8,80,0.00,,,0.00,WUHU216HW,2013-03-08 09:12:00,
2013-03-08 03:17:00,64.2,58.2,29.38,ENE,68,3.8,4.4,81,0.00,,,0.00,WUHU216HW,2013-03-08 09:17:00,
2013-03-08 03:22:00,63.6,57.7,29.38,SE,135,0.8,6.7,81,0.00,,,0.00,WUHU216HW,2013-03-08 09:22:00,
2013-03-08 03:27:00,64.0,58.2,29.39,SE,135,0.8,6.7,81,0.00,,,0.00,WUHU216HW,2013-03-08 09:27:00,
2013-03-08 03:32:00,64.2,58.2,29.39,SE,135,0.6,4.2,81,0.00,,,0.00,WUHU216HW,2013-03-08 09:32:00,
2013-03-08 03:37:00,63.6,58.0,29.39,ESE,113,5.1,6.0,82,0.00,,,0.00,WUHU216HW,2013-03-08 09:37:00,
2013-03-08 03:42:00,63.6,58.0,29.39,ESE,113,0.8,6.0,82,0.00,,,0.00,WUHU216HW,2013-03-08 09:42:00,
2013-03-08 03:47:00,63.6,58.0,29.39,ESE,113,0.8,1.1,82,0.00,,,0.00,WUHU216HW,2013-03-08 09:47:00,
2013-03-08 03:52:00,63.6,58.0,29.39,ESE,113,0.8,8.2,82,0.00,,,0.00,WUHU216HW,2013-03-08 09:52:00,
2013-03-08 03:57:00,63.6,58.4,29.39,East,90,0.0,8.2,83,0.00,,,0.00,WUHU216HW,2013-03-08 09:57:00,
2013-03-08 04:02:00,63.6,58.0,29.38,ENE,68,4.4,4.4,82,0.00,,,0.00,WUHU216HW,2013-03-08 10:02:00,
2013-03-08 04:07:00,63.6,58.0,29.39,ENE,68,2.4,4.4,82,0.00,,,0.00,WUHU216HW,2013-03-08 10:07:00,
2013-03-08 04:12:00,63.5,58.4,29.39,East,90,3.3,4.4,83,0.00,,,0.00,WUHU216HW,2013-03-08 10:12:00,
2013-03-08 04:17:00,63.6,58.7,29.38,ESE,113,2.2,3.3,84,0.00,,,0.00,WUHU216HW,2013-03-08 10:17:00,
2013-03-08 04:22:00,63.6,58.7,29.38,SSE,158,5.8,5.8,84,0.00,,,0.00,WUHU216HW,2013-03-08 10:22:00,
2013-03-08 04:27:00,63.6,58.7,29.37,SSE,158,3.8,5.8,84,0.00,,,0.00,WUHU216HW,2013-03-08 10:27:00,
2013-03-08 04:32:00,63.5,58.9,29.37,East,90,2.9,3.8,85,0.00,,,0.00,WUHU216HW,2013-03-08 10:32:00,
2013-03-08 04:37:00,63.5,58.9,29.37,East,90,6.9,6.9,85,0.00,,,0.00,WUHU216HW,2013-03-08 10:37:00,
2013-03-08 04:42:00,63.5,58.7,29.37,ESE,113,2.9,6.9,84,0.00,,,0.00,WUHU216HW,2013-03-08 10:42:00,
2013-03-08 04:47:00,63.5,58.5,29.38,East,90,2.0,3.5,84,0.00,,,0.00,WUHU216HW,2013-03-08 10:47:00,
2013-03-08 04:52:00,63.5,58.9,29.38,East,90,5.1,5.1,85,0.00,,,0.00,WUHU216HW,2013-03-08 10:52:00,
2013-03-08 04:57:00,63.5,58.5,29.39,ESE,113,0.0,5.5,84,0.00,,,0.00,WUHU216HW,2013-03-08 10:57:00,
2013-03-08 05:02:00,63.6,58.7,29.39,ESE,113,2.6,5.5,84,0.00,,,0.00,WUHU216HW,2013-03-08 11:02:00,
2013-03-08 05:07:00,63.6,58.7,29.39,SSE,158,1.3,2.6,84,0.00,,,0.00,WUHU216HW,2013-03-08 11:07:00,
2013-03-08 05:12:00,63.6,58.7,29.40,ESE,113,2.4,2.6,84,0.00,,,0.00,WUHU216HW,2013-03-08 11:12:00,
2013-03-08 05:17:00,63.5,58.9,29.40,ESE,113,2.2,2.4,85,0.00,,,0.00,WUHU216HW,2013-03-08 11:17:00,
2013-03-08 05:22:00,63.5,58.9,29.40,ESE,113,0.8,2.4,85,0.00,,,0.00,WUHU216HW,2013-03-08 11:22:00,
2013-03-08 05:27:00,63.5,58.9,29.39,ESE,113,3.8,4.6,85,0.00,,,0.00,WUHU216HW,2013-03-08 11:27:00,
2013-03-08 05:32:00,63.5,59.2,29.40,South,180,1.7,4.6,86,0.00,,,0.00,WUHU216HW,2013-03-08 11:32:00,
2013-03-08 05:37:00,63.3,59.0,29.40,ESE,113,1.5,3.8,86,0.00,,,0.00,WUHU216HW,2013-03-08 11:37:00,
2013-03-08 05:42:00,63.1,59.2,29.40,East,90,1.7,4.0,87,0.00,,,0.00,WUHU216HW,2013-03-08 11:42:00,
2013-03-08 05:47:00,63.1,59.2,29.40,SE,135,3.3,4.9,87,0.00,,,0.00,WUHU216HW,2013-03-08 11:47:00,
2013-03-08 05:52:00,63.1,59.5,29.40,East,90,1.3,4.9,88,0.00,,,0.00,WUHU216HW,2013-03-08 11:52:00,
2013-03-08 05:57:00,63.3,60.0,29.40,ESE,113,7.3,7.3,89,0.00,,,0.00,WUHU216HW,2013-03-08 11:57:00,
2013-03-08 06:02:00,62.9,59.7,29.40,ESE,113,2.6,7.3,89,0.00,,,0.00,WUHU216HW,2013-03-08 12:02:00,
2013-03-08 06:07:00,62.9,59.7,29.40,ESE,113,1.5,7.3,89,0.00,,,0.00,WUHU216HW,2013-03-08 12:07:00,
2013-03-08 06:12:00,62.9,60.0,29.39,East,90,12.5,12.5,90,0.00,,,0.00,WUHU216HW,2013-03-08 12:12:00,
2013-03-08 06:17:00,62.7,60.1,29.39,East,90,6.0,12.5,91,0.00,,,0.00,WUHU216HW,2013-03-08 12:17:00,
2013-03-08 06:22:00,62.6,60.0,29.38,ENE,68,3.8,12.5,91,0.00,,,0.00,WUHU216HW,2013-03-08 12:22:00,
2013-03-08 06:27:00,62.7,60.4,29.38,ENE,68,5.8,10.7,93,0.00,,,0.00,WUHU216HW,2013-03-08 12:27:00,
2013-03-08 06:32:00,62.7,60.7,29.38,ENE,68,9.1,10.7,93,0.00,,,0.00,WUHU216HW,2013-03-08 12:32:00,
2013-03-08 06:37:00,62.2,60.5,29.39,East,90,5.5,10.7,94,0.00,,,0.00,WUHU216HW,2013-03-08 12:37:00,
2013-03-08 06:42:00,62.6,60.8,29.39,ENE,68,2.4,10.7,94,0.00,,,0.00,WUHU216HW,2013-03-08 12:42:00,
2013-03-08 06:47:00,62.4,60.6,29.39,ESE,113,5.3,10.7,94,0.00,,,0.00,WUHU216HW,2013-03-08 12:47:00,
2013-03-08 06:52:00,62.0,60.3,29.39,ESE,113,4.4,5.3,94,0.00,,,0.00,WUHU216HW,2013-03-08 12:52:00,
2013-03-08 06:57:00,61.8,60.4,29.39,ESE,113,3.8,5.3,95,0.00,,,0.00,WUHU216HW,2013-03-08 12:57:00,
2013-03-08 07:02:00,61.8,60.7,29.39,ESE,113,6.7,6.7,96,0.00,,,0.00,WUHU216HW,2013-03-08 13:02:00,
2013-03-08 07:07:00,61.8,60.7,29.39,East,90,7.1,7.1,96,0.00,,,0.00,WUHU216HW,2013-03-08 13:07:00,
2013-03-08 07:12:00,61.8,60.7,29.40,ENE,68,5.8,9.1,96,0.00,,,0.00,WUHU216HW,2013-03-08 13:12:00,
2013-03-08 07:17:00,61.8,60.7,29.40,ESE,113,4.6,9.1,96,0.00,,,0.00,WUHU216HW,2013-03-08 13:17:00,
2013-03-08 07:22:00,61.8,60.7,29.40,East,90,9.8,9.8,96,0.00,,,0.00,WUHU216HW,2013-03-08 13:22:00,
2013-03-08 07:27:00,61.8,60.7,29.40,East,90,0.0,9.8,96,0.00,,,0.00,WUHU216HW,2013-03-08 13:27:00,
2013-03-08 07:32:00,62.0,61.1,29.40,ENE,68,5.1,6.7,97,0.00,,,0.00,WUHU216HW,2013-03-08 13:32:00,
2013-03-08 07:37:00,62.2,61.3,29.40,East,90,4.6,5.1,97,0.00,,,0.00,WUHU216HW,2013-03-08 13:37:00,
2013-03-08 07:42:00,62.0,61.1,29.40,East,90,8.9,8.9,97,0.00,,,0.00,WUHU216HW,2013-03-08 13:42:00,
2013-03-08 07:47:00,62.2,61.3,29.40,East,90,9.1,9.1,97,0.00,,,0.00,WUHU216HW,2013-03-08 13:47:00,
2013-03-08 07:52:00,62.0,61.1,29.41,ESE,113,2.4,9.1,97,0.00,,,0.00,WUHU216HW,2013-03-08 13:52:00,
2013-03-08 07:57:00,62.2,61.3,29.41,ESE,113,1.5,9.1,97,0.00,,,0.00,WUHU216HW,2013-03-08 13:57:00,
2013-03-08 08:02:00,62.2,61.3,29.41,ESE,113,0.8,8.5,97,0.00,,,0.00,WUHU216HW,2013-03-08 14:02:00,
2013-03-08 08:07:00,62.2,61.3,29.42,ESE,113,1.7,1.7,97,0.00,,,0.00,WUHU216HW,2013-03-08 14:07:00,
2013-03-08 08:12:00,62.2,61.3,29.42,East,90,4.0,7.1,97,0.00,,,0.00,WUHU216HW,2013-03-08 14:12:00,
2013-03-08 08:17:00,62.0,61.1,29.42,ESE,113,1.5,7.1,97,0.00,,,0.00,WUHU216HW,2013-03-08 14:17:00,
2013-03-08 08:22:00,62.2,61.3,29.43,ESE,113,2.0,4.0,97,0.00,,,0.00,WUHU216HW,2013-03-08 14:22:00,
2013-03-08 08:27:00,62.0,61.1,29.43,East,90,4.0,5.5,97,0.00,,,0.00,WUHU216HW,2013-03-08 14:27:00,
2013-03-08 08:32:00,62.2,61.3,29.43,ENE,68,1.5,5.5,97,0.00,,,0.00,WUHU216HW,2013-03-08 14:32:00,
2013-03-08 08:37:00,62.2,61.3,29.44,SSE,158,3.1,4.0,97,0.00,,,0.00,WUHU216HW,2013-03-08 14:37:00,
2013-03-08 08:42:00,62.4,61.5,29.44,ENE,68,6.4,6.4,97,0.00,,,0.00,WUHU216HW,2013-03-08 14:42:00,
2013-03-08 08:47:00,62.2,61.3,29.44,ESE,113,4.0,6.4,97,0.00,,,0.00,WUHU216HW,2013-03-08 14:47:00,
2013-03-08 08:52:00,62.4,61.5,29.43,ENE,68,0.0,6.4,97,0.00,,,0.00,WUHU216HW,2013-03-08 14:52:00,
2013-03-08 08:57:00,62.4,61.5,29.44,East,90,4.6,5.1,97,0.00,,,0.00,WUHU216HW,2013-03-08 14:57:00,
2013-03-08 09:02:00,62.4,61.5,29.44,East,90,1.3,4.6,97,0.00,,,0.00,WUHU216HW,2013-03-08 15:02:00,
2013-03-08 09:07:00,62.4,61.5,29.44,ENE,68,4.2,4.6,97,0.00,,,0.00,WUHU216HW,2013-03-08 15:07:00,
2013-03-08 09:12:00,62.4,61.5,29.45,ENE,68,3.3,4.2,97,0.00,,,0.00,WUHU216HW,2013-03-08 15:12:00,
2013-03-08 09:17:00,62.4,61.5,29.45,ENE,68,3.1,4.2,97,0.00,,,0.00,WUHU216HW,2013-03-08 15:17:00,
2013-03-08 09:22:00,62.7,61.9,29.45,ENE,68,4.4,4.4,97,0.00,,,0.00,WUHU216HW,2013-03-08 15:22:00,
2013-03-08 09:27:00,62.4,61.5,29.45,East,90,5.3,5.3,97,0.00,,,0.00,WUHU216HW,2013-03-08 15:27:00,
2013-03-08 09:32:00,62.6,61.4,29.46,East,90,0.8,5.3,96,0.00,,,0.00,WUHU216HW,2013-03-08 15:32:00,
2013-03-08 09:37:00,62.6,61.4,29.46,East,90,1.5,4.2,96,0.00,,,0.00,WUHU216HW,2013-03-08 15:37:00,
2013-03-08 09:42:00,62.4,61.2,29.46,ENE,68,2.0,2.0,96,0.00,,,0.00,WUHU216HW,2013-03-08 15:42:00,
2013-03-08 09:47:00,62.4,61.2,29.46,East,90,2.2,2.2,96,0.00,,,0.00,WUHU216HW,2013-03-08 15:47:00,
2013-03-08 09:52:00,62.6,61.7,29.46,East,90,2.4,6.2,97,0.00,,,0.00,WUHU216HW,2013-03-08 15:52:00,
2013-03-08 09:57:00,62.4,61.2,29.45,East,90,6.7,6.9,96,0.00,,,0.00,WUHU216HW,2013-03-08 15:57:00,
2013-03-08 10:02:00,62.4,61.5,29.45,ENE,68,2.9,6.9,97,0.00,,,0.00,WUHU216HW,2013-03-08 16:02:00,
2013-03-08 10:07:00,62.4,61.5,29.45,East,90,4.0,6.9,97,0.00,,,0.00,WUHU216HW,2013-03-08 16:07:00,
2013-03-08 10:12:00,62.6,62.0,29.44,ENE,68,4.4,4.9,98,0.00,,,0.00,WUHU216HW,2013-03-08 16:12:00,
2013-03-08 10:17:00,62.4,61.8,29.44,East,90,6.2,8.9,98,0.00,,,0.00,WUHU216HW,2013-03-08 16:17:00,
2013-03-08 10:22:00,62.7,62.4,29.43,East,90,6.4,9.6,99,0.00,,,0.00,WUHU216HW,2013-03-08 16:22:00,
2013-03-08 10:27:00,62.7,62.4,29.43,ENE,68,9.6,10.9,99,0.00,,,0.00,WUHU216HW,2013-03-08 16:27:00,
2013-03-08 10:33:00,62.7,62.4,29.43,ENE,68,9.3,10.9,99,0.00,,,0.00,WUHU216HW,2013-03-08 16:33:00,
2013-03-08 10:38:00,62.7,62.2,29.42,East,90,7.6,9.6,98,0.00,,,0.00,WUHU216HW,2013-03-08 16:38:00,
2013-03-08 10:43:00,62.7,62.2,29.42,East,90,8.0,8.0,98,0.00,,,0.00,WUHU216HW,2013-03-08 16:43:00,
2013-03-08 10:48:00,62.7,62.2,29.42,East,90,8.0,9.6,98,0.00,,,0.00,WUHU216HW,2013-03-08 16:48:00,
2013-03-08 10:53:00,62.7,62.2,29.42,ENE,68,17.2,17.2,98,0.00,,,0.00,WUHU216HW,2013-03-08 16:53:00,
2013-03-08 10:58:00,62.6,62.0,29.42,ENE,68,10.7,17.2,98,0.00,,,0.00,WUHU216HW,2013-03-08 16:58:00,
2013-03-08 11:03:00,62.6,62.0,29.43,ENE,68,3.8,17.2,98,0.00,,,0.00,WUHU216HW,2013-03-08 17:03:00,
2013-03-08 11:08:00,62.6,62.0,29.43,ENE,68,6.9,11.4,98,0.00,,,0.00,WUHU216HW,2013-03-08 17:08:00,
2013-03-08 11:13:00,62.6,62.0,29.43,East,90,3.5,10.9,98,0.00,,,0.00,WUHU216HW,2013-03-08 17:13:00,
2013-03-08 11:18:00,62.7,62.2,29.43,East,90,5.1,10.9,98,0.00,,,0.00,WUHU216HW,2013-03-08 17:18:00,
2013-03-08 11:23:00,62.7,62.2,29.43,ENE,68,7.8,8.9,98,0.00,,,0.00,WUHU216HW,2013-03-08 17:23:00,
2013-03-08 11:28:00,62.7,62.2,29.43,ENE,68,4.0,8.9,98,0.00,,,0.00,WUHU216HW,2013-03-08 17:28:00,
2013-03-08 11:33:00,63.1,62.5,29.44,ENE,68,5.8,7.8,98,0.00,,,0.00,WUHU216HW,2013-03-08 17:33:00,
2013-03-08 11:38:00,62.9,62.0,29.44,ESE,113,0.8,6.9,97,0.00,,,0.00,WUHU216HW,2013-03-08 17:38:00,
2013-03-08 11:43:00,62.9,62.0,29.44,East,90,6.7,7.3,97,0.00,,,0.00,WUHU216HW,2013-03-08 17:43:00,
2013-03-08 11:48:00,62.7,62.2,29.43,East,90,7.6,7.6,98,0.00,,,0.00,WUHU216HW,2013-03-08 17:48:00,
2013-03-08 11:53:00,62.7,62.2,29.43,East,90,8.9,8.9,98,0.00,,,0.00,WUHU216HW,2013-03-08 17:53:00,
2013-03-08 11:58:00,62.7,62.2,29.42,ENE,68,8.9,8.9,98,0.00,,,0.00,WUHU216HW,2013-03-08 17:58:00,
2013-03-08 12:03:00,62.7,62.2,29.42,ENE,68,9.8,9.8,98,0.00,,,0.00,WUHU216HW,2013-03-08 18:03:00,
2013-03-08 12:08:00,62.9,62.3,29.41,ENE,68,7.6,9.8,98,0.00,,,0.00,WUHU216HW,2013-03-08 18:08:00,
2013-03-08 12:13:00,62.9,62.3,29.41,ENE,68,5.1,7.6,98,0.00,,,0.00,WUHU216HW,2013-03-08 18:13:00,
2013-03-08 12:18:00,63.1,62.8,29.41,East,90,4.6,7.6,99,0.00,,,0.00,WUHU216HW,2013-03-08 18:18:00,
2013-03-08 12:23:00,62.9,62.3,29.41,East,90,5.3,13.1,98,0.00,,,0.00,WUHU216HW,2013-03-08 18:23:00,
2013-03-08 12:28:00,62.9,62.3,29.41,ENE,68,8.2,13.1,98,0.00,,,0.00,WUHU216HW,2013-03-08 18:28:00,
2013-03-08 12:33:00,62.9,62.3,29.41,ESE,113,7.3,8.2,98,0.00,,,0.00,WUHU216HW,2013-03-08 18:33:00,
2013-03-08 12:38:00,62.9,62.6,29.41,ESE,113,5.3,11.1,99,0.00,,,0.00,WUHU216HW,2013-03-08 18:38:00,
2013-03-08 12:43:00,62.7,62.4,29.41,ESE,113,8.2,11.1,99,0.00,,,0.00,WUHU216HW,2013-03-08 18:43:00,
2013-03-08 12:48:00,62.7,62.4,29.40,East,90,6.2,8.2,99,0.00,,,0.00,WUHU216HW,2013-03-08 18:48:00,
2013-03-08 12:53:00,62.7,62.4,29.40,ENE,68,7.8,8.0,99,0.00,,,0.00,WUHU216HW,2013-03-08 18:53:00,
2013-03-08 12:58:00,62.7,62.4,29.40,ENE,68,7.3,9.1,99,0.00,,,0.00,WUHU216HW,2013-03-08 18:58:00,
2013-03-08 13:03:00,62.7,62.4,29.40,East,90,7.8,9.1,99,0.00,,,0.00,WUHU216HW,2013-03-08 19:03:00,
2013-03-08 13:08:00,62.7,62.4,29.39,ENE,68,6.2,8.0,99,0.00,,,0.00,WUHU216HW,2013-03-08 19:08:00,
2013-03-08 13:13:00,62.6,62.3,29.39,ENE,68,3.8,8.0,99,0.00,,,0.00,WUHU216HW,2013-03-08 19:13:00,
2013-03-08 13:18:00,62.7,62.4,29.40,East,90,3.3,6.2,99,0.00,,,0.00,WUHU216HW,2013-03-08 19:18:00,
2013-03-08 13:23:00,62.7,62.4,29.39,ENE,68,2.0,4.9,99,0.00,,,0.00,WUHU216HW,2013-03-08 19:23:00,
2013-03-08 13:28:00,62.7,62.4,29.39,ESE,113,5.3,5.3,99,0.00,,,0.00,WUHU216HW,2013-03-08 19:28:00,
2013-03-08 13:33:00,62.7,62.4,29.38,ENE,68,4.4,5.3,99,0.00,,,0.00,WUHU216HW,2013-03-08 19:33:00,
2013-03-08 13:38:00,62.7,62.4,29.38,ENE,68,7.1,7.1,99,0.00,,,0.00,WUHU216HW,2013-03-08 19:38:00,
2013-03-08 13:43:00,62.7,62.4,29.39,East,90,2.0,7.1,99,0.00,,,0.00,WUHU216HW,2013-03-08 19:43:00,
2013-03-08 13:48:00,62.7,62.4,29.39,East,90,2.0,7.1,99,0.00,,,0.00,WUHU216HW,2013-03-08 19:48:00,
2013-03-08 13:53:00,62.7,62.4,29.39,ESE,113,0.0,5.1,99,0.00,,,0.00,WUHU216HW,2013-03-08 19:53:00,
2013-03-08 13:58:00,62.9,62.6,29.38,ESE,113,5.1,5.1,99,0.00,,,0.00,WUHU216HW,2013-03-08 19:58:00,
2013-03-08 14:03:00,63.1,62.8,29.38,East,90,0.0,5.1,99,0.00,,,0.00,WUHU216HW,2013-03-08 20:03:00,
2013-03-08 14:08:00,63.1,62.8,29.38,East,90,4.9,5.3,99,0.00,,,0.00,WUHU216HW,2013-03-08 20:08:00,
2013-03-08 14:13:00,62.9,62.6,29.38,ENE,68,5.3,5.3,99,0.00,,,0.00,WUHU216HW,2013-03-08 20:13:00,
2013-03-08 14:18:00,62.9,62.6,29.38,East,90,1.7,5.3,99,0.00,,,0.00,WUHU216HW,2013-03-08 20:18:00,
2013-03-08 14:23:00,63.1,62.8,29.37,ENE,68,2.9,4.4,99,0.00,,,0.00,WUHU216HW,2013-03-08 20:23:00,
2013-03-08 14:28:00,63.1,62.8,29.37,East,90,3.5,4.4,99,0.00,,,0.00,WUHU216HW,2013-03-08 20:28:00,
2013-03-08 14:33:00,63.1,62.8,29.37,ENE,68,4.4,6.2,99,0.00,,,0.00,WUHU216HW,2013-03-08 20:33:00,
2013-03-08 14:38:00,63.1,62.8,29.36,NE,45,4.6,6.2,99,0.00,,,0.00,WUHU216HW,2013-03-08 20:38:00,
2013-03-08 14:43:00,63.3,63.0,29.35,NE,45,4.4,4.6,99,0.00,,,0.00,WUHU216HW,2013-03-08 20:43:00,
2013-03-08 14:48:00,63.5,63.2,29.35,East,90,5.3,7.1,99,0.00,,,0.00,WUHU216HW,2013-03-08 20:48:00,
2013-03-08 14:53:00,63.3,63.0,29.35,East,90,3.8,7.1,99,0.00,,,0.00,WUHU216HW,2013-03-08 20:53:00,
2013-03-08 14:58:00,63.5,63.2,29.35,East,90,6.4,6.4,99,0.00,,,0.00,WUHU216HW,2013-03-08 20:58:00,
2013-03-08 15:03:00,63.6,63.3,29.34,East,90,14.7,14.7,99,0.00,,,0.00,WUHU216HW,2013-03-08 21:03:00,
2013-03-08 15:08:00,64.0,63.7,29.34,ENE,68,7.8,14.7,99,0.00,,,0.00,WUHU216HW,2013-03-08 21:08:00,
2013-03-08 15:13:00,63.6,63.3,29.34,ENE,68,11.6,11.6,99,0.00,,,0.00,WUHU216HW,2013-03-08 21:13:00,
2013-03-08 15:18:00,63.8,63.5,29.33,East,90,12.0,12.0,99,0.00,,,0.00,WUHU216HW,2013-03-08 21:18:00,
2013-03-08 15:23:00,63.6,63.3,29.33,East,90,7.6,12.0,99,0.00,,,0.00,WUHU216HW,2013-03-08 21:23:00,
2013-03-08 15:28:00,63.6,63.3,29.33,East,90,6.7,9.3,99,0.00,,,0.00,WUHU216HW,2013-03-08 21:28:00,
2013-03-08 15:33:00,63.8,63.5,29.33,East,90,4.4,8.5,99,0.00,,,0.00,WUHU216HW,2013-03-08 21:33:00,
2013-03-08 15:38:00,63.8,63.5,29.33,East,90,5.1,8.0,99,0.00,,,0.00,WUHU216HW,2013-03-08 21:38:00,
2013-03-08 15:43:00,64.0,63.7,29.33,East,90,4.4,6.7,99,0.00,,,0.00,WUHU216HW,2013-03-08 21:43:00,
2013-03-08 15:48:00,64.0,63.7,29.34,East,90,3.1,7.3,99,0.00,,,0.00,WUHU216HW,2013-03-08 21:48:00,
2013-03-08 15:53:00,64.0,63.7,29.34,East,90,4.2,7.3,99,0.00,,,0.00,WUHU216HW,2013-03-08 21:53:00,
2013-03-08 15:58:00,64.0,63.7,29.34,East,90,4.0,8.2,99,0.00,,,0.00,WUHU216HW,2013-03-08 21:58:00,
2013-03-08 16:03:00,64.0,63.7,29.34,ESE,113,0.0,8.2,99,0.00,,,0.00,WUHU216HW,2013-03-08 22:03:00,
2013-03-08 16:08:00,64.0,63.7,29.34,ENE,68,6.4,6.4,99,0.00,,,0.00,WUHU216HW,2013-03-08 22:08:00,
2013-03-08 16:13:00,64.0,63.7,29.34,East,90,2.2,6.4,99,0.00,,,0.00,WUHU216HW,2013-03-08 22:13:00,
2013-03-08 16:18:00,64.0,63.7,29.34,East,90,3.1,6.4,99,0.00,,,0.00,WUHU216HW,2013-03-08 22:18:00,
2013-03-08 16:23:00,64.0,63.7,29.34,ESE,113,3.5,3.5,99,0.00,,,0.00,WUHU216HW,2013-03-08 22:23:00,
2013-03-08 16:28:00,63.8,63.5,29.34,ESE,113,5.5,5.5,99,0.00,,,0.00,WUHU216HW,2013-03-08 22:28:00,
2013-03-08 16:33:00,64.0,63.7,29.34,East,90,2.0,6.4,99,0.00,,,0.00,WUHU216HW,2013-03-08 22:33:00,
2013-03-08 16:38:00,63.6,63.3,29.34,East,90,3.5,6.4,99,0.00,,,0.00,WUHU216HW,2013-03-08 22:38:00,
2013-03-08 16:43:00,64.0,63.7,29.33,East,90,6.2,6.2,99,0.00,,,0.00,WUHU216HW,2013-03-08 22:43:00,
2013-03-08 16:48:00,63.6,63.3,29.33,East,90,3.5,8.2,99,0.00,,,0.00,WUHU216HW,2013-03-08 22:48:00,
2013-03-08 16:53:00,64.0,63.7,29.32,ESE,113,6.2,8.2,99,0.00,,,0.00,WUHU216HW,2013-03-08 22:53:00,
2013-03-08 16:58:00,64.0,63.7,29.32,East,90,6.2,7.1,99,0.00,,,0.00,WUHU216HW,2013-03-08 22:58:00,
2013-03-08 17:03:00,64.2,63.9,29.32,East,90,4.4,6.2,99,0.00,,,0.00,WUHU216HW,2013-03-08 23:03:00,
2013-03-08 17:08:00,64.0,63.7,29.32,ENE,68,9.1,9.1,99,0.00,,,0.00,WUHU216HW,2013-03-08 23:08:00,
2013-03-08 17:13:00,64.2,63.9,29.32,ENE,68,4.0,9.1,99,0.00,,,0.00,WUHU216HW,2013-03-08 23:13:00,
2013-03-08 17:18:00,64.2,63.9,29.32,ENE,68,7.8,9.1,99,0.00,,,0.00,WUHU216HW,2013-03-08 23:18:00,
2013-03-08 17:23:00,64.2,63.9,29.32,ENE,68,5.5,7.8,99,0.00,,,0.00,WUHU216HW,2013-03-08 23:23:00,
2013-03-08 17:28:00,64.2,63.9,29.31,ENE,68,6.7,6.7,99,0.00,,,0.00,WUHU216HW,2013-03-08 23:28:00,
2013-03-08 17:33:00,64.0,63.7,29.31,ENE,68,6.2,7.1,99,0.00,,,0.00,WUHU216HW,2013-03-08 23:33:00,
2013-03-08 17:38:00,64.2,63.9,29.31,ENE,68,5.3,7.1,99,0.00,,,0.00,WUHU216HW,2013-03-08 23:38:00,
2013-03-08 17:43:00,64.2,63.9,29.31,East,90,9.1,9.1,99,0.00,,,0.00,WUHU216HW,2013-03-08 23:43:00,
2013-03-08 17:48:00,64.0,63.7,29.31,East,90,4.6,9.1,99,0.00,,,0.00,WUHU216HW,2013-03-08 23:48:00,
2013-03-08 17:53:00,64.2,63.9,29.31,East,90,4.4,6.9,99,0.00,,,0.00,WUHU216HW,2013-03-08 23:53:00,
2013-03-08 17:58:00,64.2,63.9,29.31,East,90,3.8,6.4,99,0.00,,,0.00,WUHU216HW,2013-03-08 23:58:00,
2013-03-08 18:03:00,64.2,63.9,29.32,East,90,4.6,6.0,99,0.00,,,0.00,WUHU216HW,2013-03-09 00:03:00,
2013-03-08 18:08:00,64.4,64.1,29.32,East,90,4.0,6.0,99,0.00,,,0.00,WUHU216HW,2013-03-09 00:08:00,
2013-03-08 18:13:00,64.4,64.1,29.32,East,90,3.1,5.5,99,0.00,,,0.00,WUHU216HW,2013-03-09 00:13:00,
2013-03-08 18:18:00,64.4,64.1,29.32,ENE,68,4.6,5.5,99,0.00,,,0.00,WUHU216HW,2013-03-09 00:18:00,
2013-03-08 18:23:00,64.5,64.2,29.32,East,90,3.3,4.6,99,0.00,,,0.00,WUHU216HW,2013-03-09 00:23:00,
2013-03-08 18:28:00,64.5,64.2,29.32,East,90,4.0,4.0,99,0.00,,,0.00,WUHU216HW,2013-03-09 00:28:00,
2013-03-08 18:33:00,64.5,64.2,29.32,East,90,1.7,5.3,99,0.00,,,0.00,WUHU216HW,2013-03-09 00:33:00,
2013-03-08 18:38:00,64.5,64.2,29.32,ENE,68,6.2,6.2,99,0.00,,,0.00,WUHU216HW,2013-03-09 00:38:00,
2013-03-08 18:43:00,64.5,64.2,29.32,East,90,1.7,6.2,99,0.00,,,0.00,WUHU216HW,2013-03-09 00:43:00,
2013-03-08 18:48:00,64.7,64.4,29.32,ENE,68,1.1,6.2,99,0.00,,,0.00,WUHU216HW,2013-03-09 00:48:00,
2013-03-08 18:53:00,64.5,64.2,29.32,ESE,113,2.9,4.4,99,0.00,,,0.00,WUHU216HW,2013-03-09 00:53:00,
2013-03-08 18:58:00,64.7,64.4,29.31,East,90,2.0,4.4,99,0.00,,,0.00,WUHU216HW,2013-03-09 00:58:00,
2013-03-08 19:03:00,64.7,64.4,29.31,East,90,4.0,4.2,99,0.00,,,0.00,WUHU216HW,2013-03-09 01:03:00,
2013-03-08 19:08:00,64.9,64.6,29.32,ESE,113,5.8,8.0,99,0.00,,,0.00,WUHU216HW,2013-03-09 01:08:00,
2013-03-08 19:13:00,64.9,64.3,29.32,East,90,4.6,8.0,98,0.00,,,0.00,WUHU216HW,2013-03-09 01:13:00,
2013-03-08 19:18:00,64.9,64.3,29.32,ESE,113,0.0,5.8,98,0.00,,,0.00,WUHU216HW,2013-03-09 01:18:00,
2013-03-08 19:23:00,64.9,64.3,29.32,East,90,10.2,10.2,98,0.00,,,0.00,WUHU216HW,2013-03-09 01:23:00,
2013-03-08 19:28:00,64.9,64.0,29.32,ENE,68,4.4,10.2,97,0.00,,,0.00,WUHU216HW,2013-03-09 01:28:00,
2013-03-08 19:33:00,64.9,64.0,29.32,East,90,2.4,10.2,97,0.00,,,0.00,WUHU216HW,2013-03-09 01:33:00,
2013-03-08 19:38:00,65.1,64.2,29.33,East,90,1.1,6.0,97,0.00,,,0.00,WUHU216HW,2013-03-09 01:38:00,
2013-03-08 19:43:00,65.1,63.9,29.33,SE,135,0.6,4.9,96,0.00,,,0.00,WUHU216HW,2013-03-09 01:43:00,
2013-03-08 19:48:00,65.1,63.9,29.33,ESE,113,0.8,4.0,96,0.00,,,0.00,WUHU216HW,2013-03-09 01:48:00,
2013-03-08 19:53:00,65.1,63.6,29.33,East,90,1.1,4.0,95,0.00,,,0.00,WUHU216HW,2013-03-09 01:53:00,
2013-03-08 19:58:00,65.1,63.6,29.34,ENE,68,0.8,1.7,95,0.00,,,0.00,WUHU216HW,2013-03-09 01:58:00,
2013-03-08 20:03:00,65.1,63.6,29.34,ESE,113,4.9,4.9,95,0.00,,,0.00,WUHU216HW,2013-03-09 02:03:00,
2013-03-08 20:08:00,65.3,63.5,29.34,ESE,113,4.9,6.0,94,0.00,,,0.00,WUHU216HW,2013-03-09 02:08:00,
2013-03-08 20:13:00,65.3,63.2,29.34,ESE,113,1.1,7.6,93,0.00,,,0.00,WUHU216HW,2013-03-09 02:13:00,
2013-03-08 20:18:00,65.3,63.2,29.34,ESE,113,3.8,7.6,93,0.00,,,0.00,WUHU216HW,2013-03-09 02:18:00,
2013-03-08 20:23:00,65.3,62.9,29.34,East,90,4.4,4.4,92,0.00,,,0.00,WUHU216HW,2013-03-09 02:23:00,
2013-03-08 20:28:00,65.3,62.9,29.35,ESE,113,0.0,8.0,92,0.00,,,0.00,WUHU216HW,2013-03-09 02:28:00,
2013-03-08 20:33:00,65.4,62.7,29.35,East,90,7.8,8.0,91,0.00,,,0.00,WUHU216HW,2013-03-09 02:33:00,
2013-03-08 20:38:00,65.4,62.7,29.35,ENE,68,8.2,8.2,91,0.00,,,0.00,WUHU216HW,2013-03-09 02:38:00,
2013-03-08 20:43:00,65.4,62.7,29.35,ESE,113,11.1,11.1,91,0.00,,,0.00,WUHU216HW,2013-03-09 02:43:00,
2013-03-08 20:48:00,65.3,62.6,29.34,ENE,68,2.9,11.1,91,0.00,,,0.00,WUHU216HW,2013-03-09 02:48:00,
2013-03-08 20:53:00,65.3,62.3,29.35,East,90,3.5,3.5,90,0.00,,,0.00,WUHU216HW,2013-03-09 02:53:00,
2013-03-08 20:58:00,65.3,62.3,29.34,ESE,113,6.0,11.6,90,0.00,,,0.00,WUHU216HW,2013-03-09 02:58:00,
2013-03-08 21:03:00,65.3,62.3,29.34,East,90,3.8,11.6,90,0.00,,,0.00,WUHU216HW,2013-03-09 03:03:00,
2013-03-08 21:08:00,65.1,62.1,29.34,East,90,2.2,6.2,90,0.00,,,0.00,WUHU216HW,2013-03-09 03:08:00,
2013-03-08 21:13:00,65.1,62.1,29.34,ESE,113,5.5,6.2,90,0.00,,,0.00,WUHU216HW,2013-03-09 03:13:00,
2013-03-08 21:18:00,65.1,62.1,29.33,ENE,68,10.7,10.7,90,0.00,,,0.00,WUHU216HW,2013-03-09 03:18:00,
2013-03-08 21:24:00,65.1,62.1,29.34,ESE,113,6.7,10.7,90,0.00,,,0.00,WUHU216HW,2013-03-09 03:24:00,
2013-03-08 21:29:00,65.1,62.1,29.34,East,90,5.8,11.1,90,0.00,,,0.00,WUHU216HW,2013-03-09 03:29:00,
2013-03-08 21:34:00,65.1,62.1,29.34,East,90,3.8,11.1,90,0.00,,,0.00,WUHU216HW,2013-03-09 03:34:00,
2013-03-08 21:39:00,65.1,62.1,29.34,ESE,113,3.5,5.8,90,0.00,,,0.00,WUHU216HW,2013-03-09 03:39:00,
2013-03-08 21:44:00,65.1,61.8,29.34,East,90,11.1,11.1,89,0.00,,,0.00,WUHU216HW,2013-03-09 03:44:00,
2013-03-08 21:49:00,65.1,61.8,29.33,ENE,68,14.0,14.0,89,0.00,,,0.00,WUHU216HW,2013-03-09 03:49:00,
2013-03-08 21:54:00,65.1,61.8,29.33,East,90,6.2,14.0,89,0.00,,,0.00,WUHU216HW,2013-03-09 03:54:00,
2013-03-08 21:59:00,65.1,61.8,29.33,ENE,68,5.8,14.0,89,0.00,,,0.00,WUHU216HW,2013-03-09 03:59:00,
2013-03-08 22:04:00,65.1,61.8,29.34,SSE,158,3.5,10.7,89,0.00,,,0.00,WUHU216HW,2013-03-09 04:04:00,
2013-03-08 22:09:00,65.1,61.8,29.34,SE,135,2.0,5.8,89,0.00,,,0.00,WUHU216HW,2013-03-09 04:09:00,
2013-03-08 22:14:00,64.9,61.8,29.34,ESE,113,3.1,8.5,89,0.00,,,0.00,WUHU216HW,2013-03-09 04:14:00,
2013-03-08 22:19:00,64.9,61.6,29.33,SE,135,3.8,8.5,89,0.00,,,0.00,WUHU216HW,2013-03-09 04:19:00,
2013-03-08 22:24:00,64.9,61.6,29.33,ENE,68,0.6,3.8,89,0.00,,,0.00,WUHU216HW,2013-03-09 04:24:00,
2013-03-08 22:29:00,64.9,61.6,29.33,ENE,68,6.7,6.7,89,0.00,,,0.00,WUHU216HW,2013-03-09 04:29:00,
2013-03-08 22:34:00,64.9,61.6,29.33,ENE,68,4.0,6.7,89,0.00,,,0.00,WUHU216HW,2013-03-09 04:34:00,
2013-03-08 22:39:00,64.7,61.8,29.33,East,90,7.1,7.1,90,0.00,,,0.00,WUHU216HW,2013-03-09 04:39:00,
2013-03-08 22:44:00,64.7,61.8,29.32,East,90,4.2,7.1,90,0.00,,,0.00,WUHU216HW,2013-03-09 04:44:00,
2013-03-08 22:49:00,64.7,61.8,29.33,SE,135,4.4,5.8,90,0.00,,,0.00,WUHU216HW,2013-03-09 04:49:00,
2013-03-08 22:54:00,64.7,61.8,29.33,ENE,68,0.8,4.4,90,0.00,,,0.00,WUHU216HW,2013-03-09 04:54:00,
2013-03-08 22:59:00,64.7,61.5,29.33,ESE,113,3.5,6.2,89,0.00,,,0.00,WUHU216HW,2013-03-09 04:59:00,
2013-03-08 23:04:00,64.5,61.6,29.33,East,90,1.7,6.2,90,0.00,,,0.00,WUHU216HW,2013-03-09 05:04:00,
2013-03-08 23:09:00,64.5,61.3,29.33,ESE,113,4.4,4.4,89,0.00,,,0.00,WUHU216HW,2013-03-09 05:09:00,
2013-03-08 23:14:00,64.7,61.5,29.32,East,90,6.4,6.4,89,0.00,,,0.00,WUHU216HW,2013-03-09 05:14:00,
2013-03-08 23:19:00,64.7,61.5,29.32,SE,135,3.1,6.4,89,0.00,,,0.00,WUHU216HW,2013-03-09 05:19:00,
2013-03-08 23:24:00,64.5,61.3,29.32,East,90,3.5,8.0,89,0.00,,,0.00,WUHU216HW,2013-03-09 05:24:00,
2013-03-08 23:29:00,64.7,61.5,29.32,SSE,158,1.3,8.0,89,0.00,,,0.00,WUHU216HW,2013-03-09 05:29:00,
2013-03-08 23:34:00,64.5,61.3,29.31,SSE,158,0.8,9.6,89,0.00,,,0.00,WUHU216HW,2013-03-09 05:34:00,
2013-03-08 23:39:00,64.7,61.5,29.31,South,180,2.9,9.6,89,0.00,,,0.00,WUHU216HW,2013-03-09 05:39:00,
2013-03-08 23:44:00,64.5,61.3,29.31,SE,135,4.4,6.2,89,0.00,,,0.00,WUHU216HW,2013-03-09 05:44:00,
2013-03-08 23:49:00,64.5,61.3,29.31,NNE,23,4.6,5.8,89,0.00,,,0.00,WUHU216HW,2013-03-09 05:49:00,
2013-03-08 23:54:00,64.5,61.3,29.30,ESE,113,3.8,5.5,89,0.00,,,0.00,WUHU216HW,2013-03-09 05:54:00,
2013-03-08 23:59:00,64.5,61.3,29.30,SE,135,0.0,4.6,89,0.00,,,0.00,WUHU216HW,2013-03-09 05:59:00,